Time;durP1;ratioP1;P1;durP2;ratioP2;P2;SDS_P1;SDS_P2;PMS_P1;PMS_P2;Temp;Humidity;BMP_temperature;BMP_pressure;BME280_temperature;BME280_humidity;BME280_pressure;Samples;Min_cycle;Max_cycle;Signal;HPM_P1;HPM_P2
2022/06/10 00:00:21;;;;;;;;;;;;;;;;;;2202910;67;1176;-64
2022/06/10 00:02:54;;;;;;;;;;;;;;;;;;2202497;59;1261;-64
2022/06/10 00:05:30;;;;;;;;;;;;;;;;;;2202725;67;1208;-63
2022/06/10 00:08:03;;;;;;;;;;;;;;;;;;2202980;67;1230;-64
2022/06/10 00:10:39;;;;;;;;;;;;;;;;;;2202205;59;1301;-64
2022/06/10 00:13:12;;;;;;;;;;;;;;;;;;2202974;60;1657;-65
2022/06/10 00:15:46;;;;;;;;;;;;;;;;;;2203584;59;2056;-65
2022/06/10 00:18:20;;;;;;;;;;;;;;;;;;2202662;67;1161;-65
2022/06/10 00:20:53;;;;;;;;;;;;;;;;;;2202924;59;1735;-65
2022/06/10 00:23:26;;;;;;;;;;;;;;;;;;2201936;67;1302;-64
2022/06/10 00:26:02;;;;;;;;;;;;;;;;;;2202339;67;1260;-64
2022/06/10 00:28:36;;;;;;;;;;;;;;;;;;2203206;67;1238;-65
2022/06/10 00:31:09;;;;;;;;;;;;;;;;;;2202127;67;1157;-64
2022/06/10 00:33:42;;;;;;;;;;;;;;;;;;2203360;67;1996;-64
2022/06/10 00:36:16;;;;;;;;;;;;;;;;;;2203657;67;1130;-65
2022/06/10 00:38:49;;;;;;;;;;;;;;;;;;2199760;59;1258;-66
2022/06/10 00:41:25;;;;;;;;;;;;;;;;;;2203674;59;1986;-63
2022/06/10 00:43:58;;;;;;;;;;;;;;;;;;2204021;67;1220;-64
2022/06/10 00:46:33;;;;;;;;;;;;;;;;;;2203858;67;1278;-64
2022/06/10 00:49:13;;;;;;;;;;;;;;;;;;2203313;67;1160;-64
2022/06/10 00:51:48;;;;;;;;;;;;;;;;;;2203554;67;1373;-64
2022/06/10 00:54:24;;;;;;;;;;;;;;;;;;2203608;59;2217;-64
2022/06/10 00:57:02;;;;;;;;;;;;;;;;;;2204021;59;1228;-65
2022/06/10 00:59:40;;;;;;;;;;;;;;;;;;2199712;67;1211;-65
2022/06/10 01:02:14;;;;;;;;;;;;;;;;;;2203949;59;1258;-65
2022/06/10 01:04:48;;;;;;;;;;;;;;;;;;2203891;59;1247;-64
2022/06/10 01:07:24;;;;;;;;;;;;;;;;;;2202990;59;2288;-64
2022/06/10 01:09:57;;;;;;;;;;;;;;;;;;2203460;59;1219;-65
2022/06/10 01:12:41;;;;;;;;;;;;;;;;;;2203493;59;1408;-66
2022/06/10 01:15:24;;;;;;;;;;;;;;;;;;2204365;59;1986;-63
2022/06/10 01:18:12;;;;;;;;;;;;;;;;;;2199966;67;1741;-64
2022/06/10 01:20:51;;;;;;;;;;;;;;;;;;2202653;67;2277;-65
2022/06/10 01:23:40;;;;;;;;;;;;;;;;;;2203457;59;1671;-65
2022/06/10 01:27:47;;;;;;;;;;;;;;;;;;2204086;67;1006;-64
2022/06/10 01:29:47;;;;;;;;;;;;;;;;;;2202571;67;1986;-64
2022/06/10 01:32:26;;;;;;;;;;;;;;;;;;2203043;67;1144;-63
2022/06/10 01:35:05;;;;;;;;;;;;;;;;;;2202526;59;1935;-64
2022/06/10 01:37:42;;;;;;;;;;;;;;;;;;2202887;59;1324;-64
2022/06/10 01:40:21;;;;;;;;;;;;;;;;;;2204181;67;1213;-63
2022/06/10 01:42:57;;;;;;;;;;;;;;;;;;2202958;59;2051;-66
2022/06/10 01:45:36;;;;;;;;;;;;;;;;;;2202811;67;1107;-65
2022/06/10 01:48:15;;;;;;;;;;;;;;;;;;2203944;67;1250;-65
2022/06/10 01:50:50;;;;;;;;;;;;;;;;;;2202836;67;1212;-63
2022/06/10 01:53:27;;;;;;;;;;;;;;;;;;2203008;59;1711;-64
2022/06/10 01:56:09;;;;;;;;;;;;;;;;;;2202792;67;1987;-65
2022/06/10 01:58:44;;;;;;;;;;;;;;;;;;2203452;59;1202;-65
2022/06/10 02:01:19;;;;;;;;;;;;;;;;;;2203333;67;1191;-63
2022/06/10 02:03:57;;;;;;;;;;;;;;;;;;2202424;59;1661;-65
2022/06/10 02:06:35;;;;;;;;;;;;;;;;;;2204479;59;1233;-66
2022/06/10 02:09:10;;;;;;;;;;;;;;;;;;2203394;67;1174;-65
2022/06/10 02:11:59;;;;;;;;;;;;;;;;;;2204852;59;1324;-65
2022/06/10 02:14:37;;;;;;;;;;;;;;;;;;2203359;60;2005;-64
2022/06/10 02:17:13;;;;;;;;;;;;;;;;;;2202397;59;1807;-63
2022/06/10 02:19:51;;;;;;;;;;;;;;;;;;2201204;59;1219;-63
2022/06/10 02:22:28;;;;;;;;;;;;;;;;;;2203854;67;1205;-64
2022/06/10 02:25:03;;;;;;;;;;;;;;;;;;2203969;67;1690;-65
2022/06/10 02:27:39;;;;;;;;;;;;;;;;;;2203490;59;1602;-65
2022/06/10 02:30:14;;;;;;;;;;;;;;;;;;2201561;67;1160;-63
2022/06/10 02:32:49;;;;;;;;;;;;;;;;;;2204725;67;1181;-64
2022/06/10 02:35:28;;;;;;;;;;;;;;;;;;2203568;67;1929;-64
2022/06/10 02:38:06;;;;;;;;;;;;;;;;;;2203402;59;1268;-65
2022/06/10 02:40:43;;;;;;;;;;;;;;;;;;2202231;59;2069;-62
2022/06/10 02:43:21;;;;;;;;;;;;;;;;;;2204403;59;1183;-63
2022/06/10 02:45:59;;;;;;;;;;;;;;;;;;2202492;67;1183;-65
2022/06/10 02:48:35;;;;;;;;;;;;;;;;;;2203033;67;1160;-64
2022/06/10 02:51:13;;;;;;;;;;;;;;;;;;2201945;59;1778;-65
2022/06/10 02:53:46;;;;;;;;;;;;;;;;;;2202776;67;1175;-64
2022/06/10 02:56:21;;;;;;;;;;;;;;;;;;2203834;59;1921;-64
2022/06/10 03:01:50;;;;;;;;;;;;;;;;;;2203288;67;1606;-63
2022/06/10 03:04:33;;;;;;;;;;;;;;;;;;2203506;59;2536;-61
2022/06/10 03:10:11;;;;;;;;;;;;;;;;;;2215628;66;1644;-64
2022/06/10 03:12:46;;;;;;;;;;;;;;;;;;2215309;59;1666;-63
2022/06/10 03:15:30;;;;;;;;;;;;;;;;;;2216691;66;1243;-64
2022/06/10 03:18:07;;;;;;;;;;;;;;;;;;2215628;66;1360;-65
2022/06/10 03:20:43;;;;;;;;;;;;;;;;;;2213592;59;1246;-64
2022/06/10 03:23:22;;;;;;;;;;;;;;;;;;2212412;66;1836;-65
2022/06/10 03:26:07;;;;;;;;;;;;;;;;;;2214567;66;1241;-64
2022/06/10 03:28:43;;;;;;;;;;;;;;;;;;2212704;67;1939;-64
2022/06/10 03:31:18;;;;;;;;;;;;;;;;;;2214034;66;1235;-65
2022/06/10 03:33:55;;;;;;;;;;;;;;;;;;2214019;66;1232;-63
2022/06/10 03:36:31;;;;;;;;;;;;;;;;;;2216555;66;1221;-64
2022/06/10 03:39:07;;;;;;;;;;;;;;;;;;2211568;59;2399;-63
2022/06/10 03:41:44;;;;;;;;;;;;;;;;;;2212477;58;2033;-64
2022/06/10 03:44:18;;;;;;;;;;;;;;;;;;2213110;59;1742;-65
2022/06/10 03:46:52;;;;;;;;;;;;;;;;;;2213855;67;1097;-64
2022/06/10 03:49:43;;;;;;;;;;;;;;;;;;2217130;66;1982;-64
2022/06/10 03:52:20;;;;;;;;;;;;;;;;;;2212764;66;1278;-64
2022/06/10 03:54:53;;;;;;;;;;;;;;;;;;2213270;67;1224;-64
2022/06/10 03:57:29;;;;;;;;;;;;;;;;;;2213399;67;1307;-65
2022/06/10 04:00:03;;;;;;;;;;;;;;;;;;2212579;67;1203;-63
2022/06/10 04:02:36;;;;;;;;;;;;;;;;;;2215708;59;1344;-64
2022/06/10 04:05:10;;;;;;;;;;;;;;;;;;2213758;66;1316;-62
2022/06/10 04:07:44;;;;;;;;;;;;;;;;;;2215732;59;1291;-64
2022/06/10 04:10:19;;;;;;;;;;;;;;;;;;2215297;67;2024;-64
2022/06/10 04:12:55;;;;;;;;;;;;;;;;;;2214409;59;1347;-64
2022/06/10 04:15:29;;;;;;;;;;;;;;;;;;2215761;67;1885;-65
2022/06/10 04:18:04;;;;;;;;;;;;;;;;;;2214032;66;1229;-65
2022/06/10 04:20:38;;;;;;;;;;;;;;;;;;2213137;67;1363;-62
2022/06/10 04:23:13;;;;;;;;;;;;;;;;;;2211951;59;1658;-64
2022/06/10 04:25:46;;;;;;;;;;;;;;;;;;2211901;67;1154;-64
2022/06/10 04:28:22;;;;;;;;;;;;;;;;;;2211022;67;1938;-63
2022/06/10 04:30:55;;;;;;;;;;;;;;;;;;2211001;67;1262;-64
2022/06/10 04:33:29;;;;;;;;;;;;;;;;;;2211745;67;1175;-64
2022/06/10 04:36:02;;;;;;;;;;;;;;;;;;2212666;67;1227;-63
2022/06/10 04:38:35;;;;;;;;;;;;;;;;;;2211846;67;1180;-63
2022/06/10 04:41:08;;;;;;;;;;;;;;;;;;2211164;59;2052;-64
2022/06/10 04:43:44;;;;;;;;;;;;;;;;;;2211372;59;1203;-64
2022/06/10 04:46:24;;;;;;;;;;;;;;;;;;2211497;67;1158;-65
2022/06/10 04:48:59;;;;;;;;;;;;;;;;;;2212456;66;1977;-64
2022/06/10 04:51:32;;;;;;;;;;;;;;;;;;2208278;67;1461;-64
2022/06/10 04:54:06;;;;;;;;;;;;;;;;;;2211830;66;1207;-63
2022/06/10 04:56:39;;;;;;;;;;;;;;;;;;2211279;67;1133;-63
2022/06/10 04:59:15;;;;;;;;;;;;;;;;;;2211508;67;1136;-64
2022/06/10 05:01:49;;;;;;;;;;;;;;;;;;2211364;59;1752;-64
2022/06/10 05:04:23;;;;;;;;;;;;;;;;;;2211805;67;1418;-64
2022/06/10 05:06:56;;;;;;;;;;;;;;;;;;2212182;59;1661;-64
2022/06/10 05:09:29;;;;;;;;;;;;;;;;;;2210318;59;1944;-64
2022/06/10 05:12:02;;;;;;;;;;;;;;;;;;2211691;59;2012;-64
2022/06/10 05:14:38;;;;;;;;;;;;;;;;;;2213120;66;2318;-63
2022/06/10 05:17:11;;;;;;;;;;;;;;;;;;2211189;59;1730;-62
2022/06/10 05:19:46;;;;;;;;;;;;;;;;;;2211377;59;1712;-64
2022/06/10 05:22:20;;;;;;;;;;;;;;;;;;2211822;59;1676;-63
2022/06/10 05:24:53;;;;;;;;;;;;;;;;;;2211203;59;2036;-62
2022/06/10 05:27:26;;;;;;;;;;;;;;;;;;2211607;59;1716;-64
2022/06/10 05:30:02;;;;;;;;;;;;;;;;;;2211699;59;1935;-62
2022/06/10 05:32:35;;;;;;;;;;;;;;;;;;2211241;67;1095;-63
2022/06/10 05:35:09;;;;;;;;;;;;;;;;;;2212059;67;1011;-62
2022/06/10 05:37:42;;;;;;;;;;;;;;;;;;2212072;67;1203;-62
2022/06/10 05:40:16;;;;;;;;;;;;;;;;;;2211977;60;1285;-65
2022/06/10 05:42:49;;;;;;;;;;;;;;;;;;2211412;67;2331;-65
2022/06/10 05:45:26;;;;;;;;;;;;;;;;;;2211164;67;1250;-65
2022/06/10 05:48:01;;;;;;;;;;;;;;;;;;2210649;59;1821;-64
2022/06/10 05:50:36;;;;;;;;;;;;;;;;;;2211868;59;1929;-65
2022/06/10 05:53:12;;;;;;;;;;;;;;;;;;2211753;67;1036;-64
2022/06/10 05:55:45;;;;;;;;;;;;;;;;;;2211179;59;1096;-64
2022/06/10 05:58:18;;;;;;;;;;;;;;;;;;2212174;67;1087;-65
2022/06/10 06:00:54;;;;;;;;;;;;;;;;;;2210340;59;1156;-64
2022/06/10 06:03:28;;;;;;;;;;;;;;;;;;2211463;59;1459;-63
2022/06/10 06:06:01;;;;;;;;;;;;;;;;;;2211730;67;1180;-65
2022/06/10 06:08:35;;;;;;;;;;;;;;;;;;2210248;59;1983;-65
2022/06/10 06:11:09;;;;;;;;;;;;;;;;;;2212290;59;1387;-62
2022/06/10 06:13:42;;;;;;;;;;;;;;;;;;2211663;59;1166;-64
2022/06/10 06:16:19;;;;;;;;;;;;;;;;;;2211803;59;2353;-64
2022/06/10 06:18:52;;;;;;;;;;;;;;;;;;2211948;67;1119;-63
2022/06/10 06:21:25;;;;;;;;;;;;;;;;;;2212396;66;1225;-63
2022/06/10 06:23:59;;;;;;;;;;;;;;;;;;2211693;67;1255;-64
2022/06/10 06:26:32;;;;;;;;;;;;;;;;;;2212222;67;1289;-64
2022/06/10 06:29:05;;;;;;;;;;;;;;;;;;2211554;67;1928;-65
2022/06/10 06:31:41;;;;;;;;;;;;;;;;;;2211096;67;1260;-64
2022/06/10 06:34:14;;;;;;;;;;;;;;;;;;2211470;67;1121;-63
2022/06/10 06:36:48;;;;;;;;;;;;;;;;;;2211038;67;1048;-63
2022/06/10 06:39:23;;;;;;;;;;;;;;;;;;2210922;67;1294;-64
2022/06/10 06:41:57;;;;;;;;;;;;;;;;;;2211471;59;1962;-65
2022/06/10 06:44:30;;;;;;;;;;;;;;;;;;2211970;67;1229;-65
2022/06/10 06:47:06;;;;;;;;;;;;;;;;;;2210653;67;1244;-63
2022/06/10 06:49:39;;;;;;;;;;;;;;;;;;2211025;67;1934;-63
2022/06/10 06:52:12;;;;;;;;;;;;;;;;;;2211262;59;1025;-63
2022/06/10 06:54:45;;;;;;;;;;;;;;;;;;2211570;67;1278;-63
2022/06/10 06:57:20;;;;;;;;;;;;;;;;;;2211456;67;1056;-65
2022/06/10 06:59:53;;;;;;;;;;;;;;;;;;2210341;67;1232;-65
2022/06/10 07:02:29;;;;;;;;;;;;;;;;;;2211609;67;1239;-64
2022/06/10 07:05:02;;;;;;;;;;;;;;;;;;2212055;59;1696;-64
2022/06/10 07:07:35;;;;;;;;;;;;;;;;;;2211506;66;1391;-62
2022/06/10 07:10:09;;;;;;;;;;;;;;;;;;2210527;59;1984;-63
2022/06/10 07:12:42;;;;;;;;;;;;;;;;;;2212509;59;1316;-65
2022/06/10 07:15:16;;;;;;;;;;;;;;;;;;2211457;59;2087;-61
2022/06/10 07:17:52;;;;;;;;;;;;;;;;;;2212398;67;1142;-65
2022/06/10 07:20:27;;;;;;;;;;;;;;;;;;2211305;67;1238;-64
2022/06/10 07:23:01;;;;;;;;;;;;;;;;;;2212371;67;1269;-63
2022/06/10 07:25:35;;;;;;;;;;;;;;;;;;2212061;67;1217;-62
2022/06/10 07:28:09;;;;;;;;;;;;;;;;;;2212395;67;1151;-62
2022/06/10 07:30:42;;;;;;;;;;;;;;;;;;2211756;67;1923;-64
2022/06/10 07:33:18;;;;;;;;;;;;;;;;;;2211388;67;1224;-63
2022/06/10 07:35:51;;;;;;;;;;;;;;;;;;2211522;67;1179;-64
2022/06/10 07:38:25;;;;;;;;;;;;;;;;;;2210579;67;1614;-63
2022/06/10 07:43:47;;;;;;;;;;;;;;;;;;2211069;67;1017;-64
2022/06/10 07:46:22;;;;;;;;;;;;;;;;;;2212053;67;1264;-64
2022/06/10 07:48:58;;;;;;;;;;;;;;;;;;2211640;67;1114;-64
2022/06/10 07:51:31;;;;;;;;;;;;;;;;;;2211749;67;1992;-64
2022/06/10 07:54:04;;;;;;;;;;;;;;;;;;2211633;67;1530;-66
2022/06/10 07:56:37;;;;;;;;;;;;;;;;;;2211976;59;1371;-63
2022/06/10 07:59:11;;;;;;;;;;;;;;;;;;2212752;67;1105;-65
2022/06/10 08:01:44;;;;;;;;;;;;;;;;;;2211991;67;1150;-63
2022/06/10 08:04:21;;;;;;;;;;;;;;;;;;2211805;59;1253;-66
2022/06/10 08:06:54;;;;;;;;;;;;;;;;;;2211616;66;1280;-64
2022/06/10 08:09:28;;;;;;;;;;;;;;;;;;2210532;67;1986;-64
2022/06/10 08:12:01;;;;;;;;;;;;;;;;;;2211754;59;1408;-64
2022/06/10 08:14:34;;;;;;;;;;;;;;;;;;2212319;67;1962;-65
2022/06/10 08:17:07;;;;;;;;;;;;;;;;;;2212727;67;1101;-64
2022/06/10 08:19:43;;;;;;;;;;;;;;;;;;2213115;67;1162;-66
2022/06/10 08:25:02;;;;;;;;;;;;;;;;;;2212306;59;1655;-64
2022/06/10 08:27:35;;;;;;;;;;;;;;;;;;2212767;67;1271;-63
2022/06/10 08:30:11;;;;;;;;;;;;;;;;;;2211708;59;1941;-63
2022/06/10 08:32:44;;;;;;;;;;;;;;;;;;2211079;59;1737;-64
2022/06/10 08:35:20;;;;;;;;;;;;;;;;;;2212390;67;1227;-63
2022/06/10 08:37:54;;;;;;;;;;;;;;;;;;2211114;67;1241;-64
2022/06/10 08:40:31;;;;;;;;;;;;;;;;;;2211458;66;1296;-66
2022/06/10 08:43:08;;;;;;;;;;;;;;;;;;2212314;67;1210;-64
2022/06/10 08:45:44;;;;;;;;;;;;;;;;;;2212719;67;1145;-65
2022/06/10 08:48:20;;;;;;;;;;;;;;;;;;2211460;67;1236;-65
2022/06/10 08:51:04;;;;;;;;;;;;;;;;;;2210917;59;1944;-64
2022/06/10 08:53:47;;;;;;;;;;;;;;;;;;2211230;67;1194;-63
2022/06/10 08:56:23;;;;;;;;;;;;;;;;;;2212150;59;1274;-64
2022/06/10 08:59:01;;;;;;;;;;;;;;;;;;2210831;67;1134;-65
2022/06/10 09:01:44;;;;;;;;;;;;;;;;;;2210901;59;1198;-62
2022/06/10 09:04:24;;;;;;;;;;;;;;;;;;2212631;59;1268;-65
2022/06/10 09:07:04;;;;;;;;;;;;;;;;;;2211714;67;1197;-64
2022/06/10 09:09:38;;;;;;;;;;;;;;;;;;2211632;59;1776;-65
2022/06/10 09:12:15;;;;;;;;;;;;;;;;;;2211587;59;1399;-65
2022/06/10 09:14:48;;;;;;;;;;;;;;;;;;2211966;59;1978;-66
2022/06/10 09:17:23;;;;;;;;;;;;;;;;;;2211289;67;1269;-65
2022/06/10 09:20:01;;;;;;;;;;;;;;;;;;2211909;66;1246;-66
2022/06/10 09:22:48;;;;;;;;;;;;;;;;;;2212276;67;1205;-63
2022/06/10 09:25:25;;;;;;;;;;;;;;;;;;2212160;67;1376;-64
2022/06/10 09:28:00;;;;;;;;;;;;;;;;;;2211993;66;1246;-65
2022/06/10 09:30:39;;;;;;;;;;;;;;;;;;2211196;59;2044;-64
2022/06/10 09:33:17;;;;;;;;;;;;;;;;;;2210953;67;1175;-65
2022/06/10 09:35:53;;;;;;;;;;;;;;;;;;2211195;67;1192;-64
2022/06/10 09:38:35;;;;;;;;;;;;;;;;;;2211427;67;1201;-64
2022/06/10 09:41:15;;;;;;;;;;;;;;;;;;2211358;59;1989;-64
2022/06/10 09:43:59;;;;;;;;;;;;;;;;;;2210967;67;1185;-66
2022/06/10 09:46:47;;;;;;;;;;;;;;;;;;2210754;59;4829;-66
2022/06/10 09:49:32;;;;;;;;;;;;;;;;;;2210258;66;1417;-66
2022/06/10 09:52:08;;;;;;;;;;;;;;;;;;2211691;67;1979;-66
2022/06/10 09:54:52;;;;;;;;;;;;;;;;;;2211824;67;1200;-66
2022/06/10 09:57:40;;;;;;;;;;;;;;;;;;2211211;59;1187;-65
2022/06/10 10:00:17;;;;;;;;;;;;;;;;;;2211057;67;2188;-66
2022/06/10 10:02:57;;;;;;;;;;;;;;;;;;2211393;59;1280;-66
2022/06/10 10:05:36;;;;;;;;;;;;;;;;;;2211957;67;1249;-65
2022/06/10 10:08:17;;;;;;;;;;;;;;;;;;2211319;59;1215;-66
2022/06/10 10:10:55;;;;;;;;;;;;;;;;;;2211433;59;1941;-65
2022/06/10 10:13:43;;;;;;;;;;;;;;;;;;2211367;59;1165;-66
2022/06/10 10:16:23;;;;;;;;;;;;;;;;;;2210227;59;1971;-66
2022/06/10 10:19:04;;;;;;;;;;;;;;;;;;2211601;67;1196;-65
2022/06/10 10:21:42;;;;;;;;;;;;;;;;;;2212434;67;1229;-64
2022/06/10 10:24:18;;;;;;;;;;;;;;;;;;2211751;67;1155;-66
2022/06/10 10:26:54;;;;;;;;;;;;;;;;;;2211440;67;1198;-66
2022/06/10 10:29:29;;;;;;;;;;;;;;;;;;2210656;67;1233;-67
2022/06/10 10:32:07;;;;;;;;;;;;;;;;;;2211045;67;2000;-66
2022/06/10 10:34:41;;;;;;;;;;;;;;;;;;2211965;67;1218;-66
2022/06/10 10:37:22;;;;;;;;;;;;;;;;;;2211920;67;1078;-64
2022/06/10 10:39:59;;;;;;;;;;;;;;;;;;2210784;67;1184;-66
2022/06/10 10:42:36;;;;;;;;;;;;;;;;;;2210998;59;2249;-66
2022/06/10 10:45:18;;;;;;;;;;;;;;;;;;2211114;67;1194;-66
2022/06/10 10:47:52;;;;;;;;;;;;;;;;;;2211835;67;1095;-66
2022/06/10 10:50:29;;;;;;;;;;;;;;;;;;2212346;67;1930;-66
2022/06/10 10:53:02;;;;;;;;;;;;;;;;;;2210707;67;1274;-65
2022/06/10 10:55:37;;;;;;;;;;;;;;;;;;2210923;67;1201;-66
2022/06/10 10:58:21;;;;;;;;;;;;;;;;;;2212850;67;1506;-66
2022/06/10 11:00:57;;;;;;;;;;;;;;;;;;2211502;66;1220;-66
2022/06/10 11:03:32;;;;;;;;;;;;;;;;;;2211541;59;1451;-65
2022/06/10 11:06:06;;;;;;;;;;;;;;;;;;2212569;67;1164;-66
2022/06/10 11:08:40;;;;;;;;;;;;;;;;;;2210230;67;1193;-65
2022/06/10 11:11:18;;;;;;;;;;;;;;;;;;2212063;59;1950;-66
2022/06/10 11:13:56;;;;;;;;;;;;;;;;;;2211353;59;1177;-66
2022/06/10 11:16:34;;;;;;;;;;;;;;;;;;2211306;67;1120;-65
2022/06/10 11:19:22;;;;;;;;;;;;;;;;;;2212097;67;1063;-67
2022/06/10 11:21:56;;;;;;;;;;;;;;;;;;2211129;66;1611;-66
2022/06/10 11:24:31;;;;;;;;;;;;;;;;;;2212166;67;1176;-67
2022/06/10 11:27:19;;;;;;;;;;;;;;;;;;2212932;67;1155;-65
2022/06/10 11:30:03;;;;;;;;;;;;;;;;;;2210692;67;1206;-66
2022/06/10 11:32:38;;;;;;;;;;;;;;;;;;2211308;67;1991;-66
2022/06/10 11:35:22;;;;;;;;;;;;;;;;;;2212573;67;1113;-65
2022/06/10 11:37:57;;;;;;;;;;;;;;;;;;2211715;59;1454;-66
2022/06/10 11:40:31;;;;;;;;;;;;;;;;;;2211244;59;2058;-66
2022/06/10 11:43:07;;;;;;;;;;;;;;;;;;2212086;59;1687;-66
2022/06/10 11:45:46;;;;;;;;;;;;;;;;;;2211574;59;1737;-66
2022/06/10 11:48:25;;;;;;;;;;;;;;;;;;2212523;67;1230;-65
2022/06/10 11:51:01;;;;;;;;;;;;;;;;;;2212572;67;1924;-65
2022/06/10 11:53:40;;;;;;;;;;;;;;;;;;2212519;67;1207;-65
2022/06/10 12:01:58;;;;;;;;;;;;;;;;;;2211825;67;1793;-65
2022/06/10 12:04:33;;;;;;;;;;;;;;;;;;2212160;66;1334;-65
2022/06/10 12:07:09;;;;;;;;;;;;;;;;;;2211667;67;1187;-65
2022/06/10 12:09:44;;;;;;;;;;;;;;;;;;2210795;67;1297;-66
2022/06/10 12:12:20;;;;;;;;;;;;;;;;;;2211342;59;1936;-65
2022/06/10 12:14:55;;;;;;;;;;;;;;;;;;2212022;59;1978;-64
2022/06/10 12:17:33;;;;;;;;;;;;;;;;;;2211700;67;1142;-66
2022/06/10 12:20:09;;;;;;;;;;;;;;;;;;2212201;59;1246;-62
2022/06/10 12:22:42;;;;;;;;;;;;;;;;;;2211689;67;1254;-65
2022/06/10 12:25:17;;;;;;;;;;;;;;;;;;2211443;67;1187;-65
2022/06/10 12:27:55;;;;;;;;;;;;;;;;;;2211614;67;1245;-64
2022/06/10 12:30:30;;;;;;;;;;;;;;;;;;2211711;67;1219;-64
2022/06/10 12:33:09;;;;;;;;;;;;;;;;;;2211801;67;1944;-65
2022/06/10 12:35:44;;;;;;;;;;;;;;;;;;2212882;67;1306;-65
2022/06/10 12:38:20;;;;;;;;;;;;;;;;;;2211878;59;1304;-64
2022/06/10 12:40:57;;;;;;;;;;;;;;;;;;2211391;59;2077;-66
2022/06/10 12:43:32;;;;;;;;;;;;;;;;;;2212588;67;1305;-65
2022/06/10 12:46:07;;;;;;;;;;;;;;;;;;2211989;67;1104;-64
2022/06/10 12:48:47;;;;;;;;;;;;;;;;;;2212167;67;1272;-66
2022/06/10 12:51:26;;;;;;;;;;;;;;;;;;2212245;66;1944;-65
2022/06/10 12:54:05;;;;;;;;;;;;;;;;;;2212171;67;1190;-65
2022/06/10 12:56:39;;;;;;;;;;;;;;;;;;2212321;59;1241;-64
2022/06/10 12:59:23;;;;;;;;;;;;;;;;;;2212063;67;1089;-65
2022/06/10 13:01:56;;;;;;;;;;;;;;;;;;2211719;67;1249;-66
2022/06/10 13:04:48;;;;;;;;;;;;;;;;;;2212346;59;1292;-64
2022/06/10 13:07:31;;;;;;;;;;;;;;;;;;2212519;67;1233;-66
2022/06/10 13:10:23;;;;;;;;;;;;;;;;;;2210408;59;1257;-64
2022/06/10 13:13:00;;;;;;;;;;;;;;;;;;2211573;59;1971;-64
2022/06/10 13:15:33;;;;;;;;;;;;;;;;;;2212384;59;2034;-66
2022/06/10 13:18:21;;;;;;;;;;;;;;;;;;2212403;67;1192;-66
2022/06/10 13:20:54;;;;;;;;;;;;;;;;;;2211302;66;1504;-66
2022/06/10 13:23:30;;;;;;;;;;;;;;;;;;2212559;67;1142;-66
2022/06/10 13:26:18;;;;;;;;;;;;;;;;;;2212057;67;1234;-66
2022/06/10 13:28:51;;;;;;;;;;;;;;;;;;2212097;66;1211;-62
2022/06/10 13:31:25;;;;;;;;;;;;;;;;;;2212856;67;1949;-66
2022/06/10 13:34:00;;;;;;;;;;;;;;;;;;2212064;67;1127;-64
2022/06/10 13:36:35;;;;;;;;;;;;;;;;;;2212291;67;1244;-65
2022/06/10 13:39:18;;;;;;;;;;;;;;;;;;2212051;59;1392;-66
2022/06/10 13:41:57;;;;;;;;;;;;;;;;;;2211454;59;1825;-65
2022/06/10 13:44:37;;;;;;;;;;;;;;;;;;2212033;67;1122;-65
2022/06/10 13:47:21;;;;;;;;;;;;;;;;;;2211899;67;1128;-66
2022/06/10 13:50:17;;;;;;;;;;;;;;;;;;2212432;67;1185;-63
2022/06/10 13:52:52;;;;;;;;;;;;;;;;;;2211548;67;2000;-65
2022/06/10 13:55:30;;;;;;;;;;;;;;;;;;2212467;59;1814;-66
2022/06/10 13:58:07;;;;;;;;;;;;;;;;;;2211050;59;1394;-64
2022/06/10 14:00:43;;;;;;;;;;;;;;;;;;2211164;67;1250;-66
2022/06/10 14:03:26;;;;;;;;;;;;;;;;;;2212155;59;1265;-65
2022/06/10 14:06:00;;;;;;;;;;;;;;;;;;2212124;59;1219;-65
2022/06/10 14:08:34;;;;;;;;;;;;;;;;;;2211559;59;1185;-65
2022/06/10 14:11:17;;;;;;;;;;;;;;;;;;2211070;59;1349;-65
2022/06/10 14:13:52;;;;;;;;;;;;;;;;;;2211427;67;1973;-65
2022/06/10 14:16:26;;;;;;;;;;;;;;;;;;2211478;67;1158;-65
2022/06/10 14:19:00;;;;;;;;;;;;;;;;;;2211156;67;1199;-66
2022/06/10 14:21:33;;;;;;;;;;;;;;;;;;2212276;66;1238;-66
2022/06/10 14:24:08;;;;;;;;;;;;;;;;;;2212377;67;1361;-65
2022/06/10 14:26:44;;;;;;;;;;;;;;;;;;2212058;67;1258;-65
2022/06/10 14:29:18;;;;;;;;;;;;;;;;;;2211926;67;1141;-65
2022/06/10 14:31:53;;;;;;;;;;;;;;;;;;2210947;59;2331;-65
2022/06/10 14:34:26;;;;;;;;;;;;;;;;;;2211626;58;1966;-66
2022/06/10 14:37:02;;;;;;;;;;;;;;;;;;2211358;59;2061;-66
2022/06/10 14:39:36;;;;;;;;;;;;;;;;;;2210865;59;1627;-66
2022/06/10 14:42:25;;;;;;;;;;;;;;;;;;2211429;59;2036;-65
2022/06/10 14:45:00;;;;;;;;;;;;;;;;;;2211441;66;1288;-64
2022/06/10 14:47:35;;;;;;;;;;;;;;;;;;2212225;67;1158;-64
2022/06/10 14:50:14;;;;;;;;;;;;;;;;;;2211197;67;1258;-66
2022/06/10 14:52:48;;;;;;;;;;;;;;;;;;2211125;59;1983;-64
2022/06/10 14:55:23;;;;;;;;;;;;;;;;;;2212364;67;1278;-66
2022/06/10 14:58:00;;;;;;;;;;;;;;;;;;2211015;59;1273;-64
2022/06/10 15:00:35;;;;;;;;;;;;;;;;;;2210453;67;1265;-67
2022/06/10 15:03:13;;;;;;;;;;;;;;;;;;2212130;59;1340;-65
2022/06/10 15:08:36;;;;;;;;;;;;;;;;;;2211573;59;1308;-63
2022/06/10 15:11:11;;;;;;;;;;;;;;;;;;2212067;59;1359;-66
2022/06/10 15:13:47;;;;;;;;;;;;;;;;;;2211173;67;1928;-63
2022/06/10 15:16:22;;;;;;;;;;;;;;;;;;2211527;59;2324;-65
2022/06/10 15:18:56;;;;;;;;;;;;;;;;;;2211682;67;1269;-66
2022/06/10 15:21:33;;;;;;;;;;;;;;;;;;2211421;67;1260;-65
2022/06/10 15:24:07;;;;;;;;;;;;;;;;;;2212104;67;1182;-66
2022/06/10 15:26:42;;;;;;;;;;;;;;;;;;2210973;67;1109;-65
2022/06/10 15:29:19;;;;;;;;;;;;;;;;;;2211109;67;1150;-66
2022/06/10 15:31:53;;;;;;;;;;;;;;;;;;2211703;67;1208;-64
2022/06/10 15:34:26;;;;;;;;;;;;;;;;;;2211170;59;1947;-65
2022/06/10 15:42:43;;;;;;;;;;;;;;;;;;2210887;59;2265;-66
2022/06/10 15:45:20;;;;;;;;;;;;;;;;;;2211011;59;3044;-65
2022/06/10 15:47:53;;;;;;;;;;;;;;;;;;2210390;67;1272;-66
2022/06/10 15:50:27;;;;;;;;;;;;;;;;;;2210613;67;1320;-66
2022/06/10 15:53:01;;;;;;;;;;;;;;;;;;2212280;66;1939;-66
2022/06/10 15:58:38;;;;;;;;;;;;;;;;;;2199298;67;1104;-66
2022/06/10 16:01:18;;;;;;;;;;;;;;;;;;2207600;59;1590;-66
2022/06/10 16:03:51;;;;;;;;;;;;;;;;;;2211252;59;1262;-66
2022/06/10 16:06:25;;;;;;;;;;;;;;;;;;2211152;67;1221;-65
2022/06/10 16:08:58;;;;;;;;;;;;;;;;;;2210929;59;1723;-66
2022/06/10 16:11:32;;;;;;;;;;;;;;;;;;2212368;59;1377;-66
2022/06/10 16:14:05;;;;;;;;;;;;;;;;;;2211971;59;1979;-65
2022/06/10 16:16:44;;;;;;;;;;;;;;;;;;2210966;59;1384;-66
2022/06/10 16:19:17;;;;;;;;;;;;;;;;;;2212722;67;1302;-66
2022/06/10 16:21:50;;;;;;;;;;;;;;;;;;2212961;67;1190;-67
2022/06/10 16:24:24;;;;;;;;;;;;;;;;;;2211214;67;1297;-66
2022/06/10 16:26:57;;;;;;;;;;;;;;;;;;2211728;66;1237;-66
2022/06/10 16:29:32;;;;;;;;;;;;;;;;;;2212434;67;1252;-65
2022/06/10 16:32:13;;;;;;;;;;;;;;;;;;2212768;67;1195;-65
2022/06/10 16:34:46;;;;;;;;;;;;;;;;;;2213022;67;1925;-64
2022/06/10 16:37:20;;;;;;;;;;;;;;;;;;2212403;67;1132;-64
2022/06/10 16:39:53;;;;;;;;;;;;;;;;;;2212735;67;1241;-66
2022/06/10 16:42:27;;;;;;;;;;;;;;;;;;2211784;59;2065;-65
2022/06/10 16:45:00;;;;;;;;;;;;;;;;;;2211332;59;1905;-65
2022/06/10 16:47:36;;;;;;;;;;;;;;;;;;2211795;67;1100;-65
2022/06/10 16:50:12;;;;;;;;;;;;;;;;;;2213221;67;1237;-66
2022/06/10 16:52:47;;;;;;;;;;;;;;;;;;2211448;67;1982;-66
2022/06/10 16:55:21;;;;;;;;;;;;;;;;;;2211458;67;1239;-66
2022/06/10 16:57:55;;;;;;;;;;;;;;;;;;2213142;59;1504;-66
2022/06/10 17:00:30;;;;;;;;;;;;;;;;;;2211201;67;1319;-66
2022/06/10 17:03:07;;;;;;;;;;;;;;;;;;2211726;59;1281;-66
2022/06/10 17:05:42;;;;;;;;;;;;;;;;;;2212224;67;1207;-65
2022/06/10 17:08:18;;;;;;;;;;;;;;;;;;2212584;59;1141;-65
2022/06/10 17:10:53;;;;;;;;;;;;;;;;;;2211450;59;1271;-66
2022/06/10 17:13:29;;;;;;;;;;;;;;;;;;2211681;59;1937;-67
2022/06/10 17:16:02;;;;;;;;;;;;;;;;;;2211843;59;1993;-67
2022/06/10 17:18:38;;;;;;;;;;;;;;;;;;2208502;67;1226;-66
2022/06/10 17:21:11;;;;;;;;;;;;;;;;;;2208061;67;1531;-65
2022/06/10 17:23:45;;;;;;;;;;;;;;;;;;2211876;67;1237;-66
2022/06/10 17:26:20;;;;;;;;;;;;;;;;;;2211919;66;1197;-64
2022/06/10 17:28:56;;;;;;;;;;;;;;;;;;2211733;67;1744;-65
2022/06/10 17:31:32;;;;;;;;;;;;;;;;;;2211945;67;1245;-66
2022/06/10 17:34:08;;;;;;;;;;;;;;;;;;2211417;67;1933;-67
2022/06/10 17:36:41;;;;;;;;;;;;;;;;;;2211985;67;1257;-66
2022/06/10 17:39:15;;;;;;;;;;;;;;;;;;2212270;59;1352;-66
2022/06/10 17:41:50;;;;;;;;;;;;;;;;;;2212497;59;2090;-66
2022/06/10 17:44:26;;;;;;;;;;;;;;;;;;2211719;60;1527;-65
2022/06/10 17:47:00;;;;;;;;;;;;;;;;;;2212085;67;1194;-67
2022/06/10 17:49:37;;;;;;;;;;;;;;;;;;2212081;67;1199;-64
2022/06/10 17:52:13;;;;;;;;;;;;;;;;;;2211717;59;1074;-64
2022/06/10 17:54:47;;;;;;;;;;;;;;;;;;2211580;67;1926;-66
2022/06/10 17:57:26;;;;;;;;;;;;;;;;;;2212307;59;1304;-65
2022/06/10 18:00:01;;;;;;;;;;;;;;;;;;2208360;66;1524;-66
2022/06/10 18:02:36;;;;;;;;;;;;;;;;;;2212540;59;1315;-66
2022/06/10 18:05:16;;;;;;;;;;;;;;;;;;2211812;67;1130;-66
2022/06/10 18:07:50;;;;;;;;;;;;;;;;;;2210726;67;1198;-66
2022/06/10 18:10:23;;;;;;;;;;;;;;;;;;2211029;59;1381;-66
2022/06/10 18:14:53;;;;;;;;;;;;;;;;;;2211814;59;1929;-65
2022/06/10 18:15:50;;;;;;;;;;;;;;;;;;2211037;67;2655;-66
2022/06/10 18:18:24;;;;;;;;;;;;;;;;;;2211804;67;1129;-66
2022/06/10 18:21:01;;;;;;;;;;;;;;;;;;2211693;67;1268;-65
2022/06/10 18:23:36;;;;;;;;;;;;;;;;;;2211970;67;1157;-66
2022/06/10 18:26:10;;;;;;;;;;;;;;;;;;2211827;59;1810;-66
2022/06/10 18:28:44;;;;;;;;;;;;;;;;;;2210991;59;1825;-66
2022/06/10 18:31:21;;;;;;;;;;;;;;;;;;2211471;67;1176;-65
2022/06/10 18:33:54;;;;;;;;;;;;;;;;;;2211752;67;2004;-64